North Pole, Alaska
Current Conditions -  °F | °C
As of 3:43 AM on Wednesday 26 Nov 2014 (Local Time) from PAEI Reporting Station
Overcast Overcast  
Wind Chill: 14°   Ceiling: 200
Heat Index: 14°   Visibility: 10mi
Dew Point: 10°   Wind: 3mph
Humidity: 86%   Direction: NA
Pressure: 30.44"   Gusts: NA
Location:  64.75°N, 147.35°W
Report Text: PAEI 261243Z AUTO VRB03KT 10SM BKN002 OVC009 M10/M12 A3044 RMK AO2 SNE1222B1223E1235 CIG 002V010 BKN V SCT $
Loading
Personal Weather Stations






























Interactive Weather Map New forecast layout! Learn more

10-Day Weather Forecast

Advertisements
Track Severe Weather on mobile